Time;durP1;ratioP1;P1;durP2;ratioP2;P2;SDS_P1;SDS_P2;PMS_P1;PMS_P2;Temp;Humidity;BMP_temperature;BMP_pressure;BME280_temperature;BME280_humidity;BME280_pressure;Samples;Min_cycle;Max_cycle;Signal;HPM_P1;HPM_P2
2022/12/31 00:00:02;;;;;;;11.82;1.80;;;11.10;99.90;;;;;;5078523;28;20052;-76
2022/12/31 00:02:31;;;;;;;8.73;1.50;;;11.10;99.90;;;;;;5079346;28;20036;-77
2022/12/31 00:04:59;;;;;;;15.77;2.00;;;11.00;99.90;;;;;;5077434;28;20044;-76
2022/12/31 00:07:26;;;;;;;16.70;2.25;;;11.00;99.90;;;;;;5078688;28;20470;-77
2022/12/31 00:09:54;;;;;;;11.85;1.90;;;11.10;99.90;;;;;;5078299;28;20048;-76
2022/12/31 00:12:21;;;;;;;13.55;2.00;;;11.00;99.90;;;;;;5044200;28;20048;-75
2022/12/31 00:14:49;;;;;;;15.63;2.22;;;11.10;99.90;;;;;;5095909;28;20350;-77
2022/12/31 00:17:16;;;;;;;20.08;2.53;;;11.00;99.90;;;;;;5077174;28;20047;-76
2022/12/31 00:19:44;;;;;;;21.30;2.43;;;11.10;99.90;;;;;;5078174;28;20052;-75
2022/12/31 00:22:11;;;;;;;15.70;2.15;;;11.10;99.90;;;;;;5095999;28;20051;-78
2022/12/31 00:24:39;;;;;;;17.35;2.50;;;11.10;99.90;;;;;;5076410;28;20059;-77
2022/12/31 00:27:06;;;;;;;17.85;2.22;;;11.10;99.90;;;;;;5078125;28;20392;-76
2022/12/31 00:29:34;;;;;;;19.17;2.50;;;11.20;99.90;;;;;;5078019;28;20500;-77
2022/12/31 00:32:01;;;;;;;18.37;2.40;;;11.20;99.90;;;;;;5076971;28;20048;-75
2022/12/31 00:34:28;;;;;;;16.07;2.33;;;11.20;99.90;;;;;;5077834;28;20757;-74
2022/12/31 00:36:56;;;;;;;17.77;2.15;;;11.20;99.90;;;;;;5077075;28;20697;-74
2022/12/31 00:39:24;;;;;;;19.45;2.63;;;11.20;99.90;;;;;;5077848;28;20048;-77
2022/12/31 00:41:51;;;;;;;18.40;2.60;;;11.20;99.90;;;;;;5095485;28;20048;-77
2022/12/31 00:44:19;;;;;;;22.42;2.40;;;11.20;99.90;;;;;;5094327;28;20052;-78
2022/12/31 00:46:47;;;;;;;17.20;2.47;;;11.10;99.90;;;;;;5078038;28;20059;-74
2022/12/31 00:49:14;;;;;;;19.38;2.13;;;11.10;99.90;;;;;;5095317;28;20052;-75
2022/12/31 00:51:42;;;;;;;19.65;2.38;;;11.10;99.90;;;;;;5076490;28;20055;-76
2022/12/31 00:54:10;;;;;;;17.75;2.30;;;11.30;99.90;;;;;;5077766;28;20040;-75
2022/12/31 00:56:38;;;;;;;18.75;2.33;;;11.00;99.90;;;;;;5095660;28;20055;-78
2022/12/31 00:59:05;;;;;;;16.25;2.42;;;11.00;99.90;;;;;;5094132;28;20062;-78
2022/12/31 01:01:35;;;;;;;16.87;2.20;;;11.00;99.90;;;;;;5095305;28;20044;-77
2022/12/31 01:04:06;;;;;;;18.70;2.40;;;10.90;99.90;;;;;;5076781;28;20044;-76
2022/12/31 01:06:34;;;;;;;14.38;2.25;;;10.90;99.90;;;;;;5077667;28;20464;-76
2022/12/31 01:09:03;;;;;;;21.75;2.50;;;10.80;99.90;;;;;;5095043;28;20376;-75
2022/12/31 01:11:31;;;;;;;19.52;2.38;;;10.80;99.90;;;;;;5076181;28;20050;-78
2022/12/31 01:14:06;;;;;;;16.02;2.47;;;10.80;99.90;;;;;;5095251;28;20043;-78
2022/12/31 01:16:37;;;;;;;16.88;2.30;;;10.80;99.90;;;;;;5095174;28;20048;-76
2022/12/31 01:19:08;;;;;;;21.50;2.45;;;11.10;99.90;;;;;;5093959;28;20055;-77
2022/12/31 01:21:37;;;;;;;25.15;3.00;;;10.80;99.90;;;;;;5095432;28;20054;-75
2022/12/31 01:24:06;;;;;;;20.67;2.83;;;10.80;99.90;;;;;;5075975;28;20547;-77
2022/12/31 01:26:34;;;;;;;20.13;2.70;;;10.80;99.90;;;;;;5095170;28;20056;-76
2022/12/31 01:29:02;;;;;;;;;;;10.80;99.90;;;;;;5095224;28;20055;-76
2022/12/31 01:31:30;;;;;;;17.52;2.25;;;10.70;99.90;;;;;;5093698;28;19920;-74
2022/12/31 01:33:57;;;;;;;19.95;2.85;;;10.80;99.90;;;;;;5077293;28;20456;-75
2022/12/31 01:36:27;;;;;;;18.52;2.70;;;10.70;99.90;;;;;;5094346;28;20122;-77
2022/12/31 01:38:57;;;;;;;20.30;2.75;;;10.70;99.90;;;;;;5075948;28;20055;-76
2022/12/31 01:41:28;;;;;;;26.30;2.42;;;10.70;99.90;;;;;;5094945;28;20052;-76
2022/12/31 01:44:02;;;;;;;22.48;2.90;;;10.70;99.90;;;;;;5093703;28;20048;-77
2022/12/31 01:46:45;;;;;;;22.33;2.83;;;10.70;99.90;;;;;;5091784;28;20052;-76
2022/12/31 01:49:20;;;;;;;23.17;2.88;;;10.60;99.90;;;;;;5077467;28;20062;-77
2022/12/31 01:51:52;;;;;;;19.30;2.60;;;10.60;99.90;;;;;;5093548;28;20055;-78
2022/12/31 01:54:21;;;;;;;21.35;2.33;;;10.60;99.90;;;;;;5094466;28;20036;-78
2022/12/31 01:56:52;;;;;;;21.02;2.60;;;10.60;99.90;;;;;;5059962;28;20052;-74
2022/12/31 01:59:21;;;;;;;20.63;2.60;;;10.60;99.90;;;;;;5076993;28;20480;-77
2022/12/31 02:01:52;;;;;;;22.00;3.17;;;10.60;99.90;;;;;;5094788;28;20043;-76
2022/12/31 02:04:23;;;;;;;20.77;2.42;;;10.70;99.90;;;;;;5093488;28;20040;-75
2022/12/31 02:06:56;;;;;;;23.80;3.00;;;10.70;99.90;;;;;;5094343;28;20048;-75
2022/12/31 02:09:23;;;;;;;24.25;2.60;;;10.60;99.90;;;;;;5077270;28;20048;-74
2022/12/31 02:11:51;;;;;;;20.48;2.80;;;10.70;99.90;;;;;;5075728;28;20044;-76
2022/12/31 02:14:55;;;;;;;16.90;2.33;;;10.70;99.90;;;;;;5094355;28;20044;-77
2022/12/31 02:17:33;;;;;;;17.95;2.30;;;10.70;99.90;;;;;;5075621;28;20044;-75
2022/12/31 02:20:22;;;;;;;19.33;2.60;;;11.10;99.90;;;;;;5094699;28;20047;-77
2022/12/31 02:23:18;;;;;;;14.75;2.10;;;10.70;99.90;;;;;;5094329;28;20044;-75
2022/12/31 02:26:10;;;;;;;14.60;1.90;;;10.70;99.90;;;;;;5075338;28;20052;-75
2022/12/31 02:28:55;;;;;;;21.13;2.13;;;10.70;99.90;;;;;;5094419;28;20048;-74
2022/12/31 02:31:38;;;;;;;15.73;2.17;;;10.70;99.90;;;;;;5059004;28;20052;-78
2022/12/31 02:34:12;;;;;;;20.13;1.92;;;10.70;99.90;;;;;;5076250;28;20051;-75
2022/12/31 02:36:46;;;;;;;15.63;2.00;;;10.70;99.90;;;;;;5094309;28;20051;-76
2022/12/31 02:39:14;;;;;;;14.10;1.83;;;10.70;99.90;;;;;;5076982;28;20046;-75
2022/12/31 02:41:51;;;;;;;13.95;2.00;;;11.30;99.90;;;;;;5059766;28;20067;-77
2022/12/31 02:44:31;;;;;;;14.95;1.67;;;11.20;99.90;;;;;;5092953;28;20067;-77
2022/12/31 02:47:07;;;;;;;11.23;1.77;;;10.80;99.90;;;;;;5094974;28;20044;-76
2022/12/31 02:49:52;;;;;;;13.88;1.85;;;10.80;99.90;;;;;;5080217;28;20060;-75
2022/12/31 02:52:53;;;;;;;13.27;1.65;;;10.80;99.90;;;;;;5078922;28;20380;-75
2022/12/31 02:55:38;;;;;;;15.77;1.95;;;10.80;99.90;;;;;;5097520;28;20040;-77
2022/12/31 03:02:12;;;;;;;17.17;2.00;;;10.80;99.90;;;;;;5096449;28;20048;-75
2022/12/31 03:04:30;;;;;;;10.35;1.67;;;11.00;99.90;;;;;;5096452;28;20464;-76
2022/12/31 03:06:51;;;;;;;12.35;1.65;;;10.80;99.90;;;;;;5097297;28;20349;-77
2022/12/31 03:09:19;;;;;;;13.23;1.42;;;10.80;99.90;;;;;;5097233;28;20048;-76
2022/12/31 03:14:33;;;;;;;7.63;1.17;;;10.90;99.90;;;;;;5079856;28;20059;-77
2022/12/31 03:17:00;;;;;;;7.35;1.02;;;10.90;99.90;;;;;;5078728;28;20059;-75
2022/12/31 03:22:26;;;;;;;5.93;0.73;;;10.90;99.90;;;;;;5097719;28;20511;-75
2022/12/31 03:25:32;;;;;;;6.10;0.90;;;11.10;99.90;;;;;;5078265;28;20048;-78
2022/12/31 03:28:02;;;;;;;5.25;0.82;;;10.90;99.90;;;;;;5079300;28;20048;-76
2022/12/31 03:30:31;;;;;;;6.35;0.68;;;10.80;99.90;;;;;;5078055;28;20044;-75
2022/12/31 03:32:59;;;;;;;6.47;0.60;;;11.10;99.90;;;;;;5096815;28;20052;-78
2022/12/31 03:35:28;;;;;;;3.97;0.50;;;11.10;99.90;;;;;;5096916;28;20048;-78
2022/12/31 03:37:56;;;;;;;4.18;0.52;;;10.80;99.90;;;;;;5061727;28;20043;-76
2022/12/31 03:40:26;;;;;;;5.22;0.40;;;10.80;99.90;;;;;;5096893;28;20048;-75
2022/12/31 03:42:53;;;;;;;2.80;0.32;;;10.80;99.90;;;;;;5078764;28;20476;-77
2022/12/31 03:45:21;;;;;;;1.42;0.30;;;10.70;99.90;;;;;;5095555;28;20051;-76
2022/12/31 03:47:49;;;;;;;0.38;0.10;;;10.70;99.90;;;;;;5078995;28;20055;-77
2022/12/31 03:50:18;;;;;;;1.05;0.13;;;10.70;99.90;;;;;;5095635;28;20057;-76
2022/12/31 03:52:45;;;;;;;2.92;0.20;;;10.80;99.90;;;;;;5061983;28;20044;-77
2022/12/31 03:55:13;;;;;;;0.90;0.15;;;10.80;99.90;;;;;;5096499;28;20040;-77
2022/12/31 03:57:41;;;;;;;1.50;0.20;;;10.70;99.90;;;;;;5095113;28;20039;-76
2022/12/31 04:00:12;;;;;;;1.17;0.15;;;11.40;99.90;;;;;;5078529;28;20058;-76
2022/12/31 04:02:40;;;;;;;1.15;0.20;;;10.70;99.90;;;;;;5096631;28;20550;-76
2022/12/31 04:05:09;;;;;;;0.40;0.20;;;11.10;99.90;;;;;;5094883;28;20040;-74
2022/12/31 04:07:37;;;;;;;0.10;0.10;;;10.80;99.90;;;;;;5078627;28;20051;-78
2022/12/31 04:10:06;;;;;;;;;;;11.20;99.90;;;;;;5097672;28;20484;-78
2022/12/31 04:12:34;;;;;;;1.85;0.20;;;10.80;99.90;;;;;;5096124;28;19928;-75
2022/12/31 04:15:01;;;;;;;2.13;0.20;;;10.80;99.90;;;;;;5096083;28;20048;-77
2022/12/31 04:17:29;;;;;;;0.90;0.20;;;10.80;99.90;;;;;;5095395;28;20357;-75
2022/12/31 04:19:57;;;;;;;2.00;0.20;;;11.00;99.90;;;;;;5095893;28;20372;-75
2022/12/31 04:22:24;;;;;;;2.47;0.30;;;10.90;99.90;;;;;;5095922;28;20506;-77
2022/12/31 04:24:52;;;;;;;1.73;0.25;;;11.00;99.90;;;;;;5094717;28;20048;-75
2022/12/31 04:27:19;;;;;;;1.20;0.20;;;11.00;99.90;;;;;;5078619;28;20048;-76
2022/12/31 04:29:46;;;;;;;0.90;0.50;;;11.10;99.90;;;;;;5095849;28;20277;-75
2022/12/31 04:32:14;;;;;;;2.53;0.50;;;11.10;99.90;;;;;;5077305;28;20048;-77
2022/12/31 04:34:42;;;;;;;3.53;0.50;;;11.10;99.90;;;;;;5095526;28;20134;-77
2022/12/31 04:37:09;;;;;;;3.55;0.43;;;11.20;99.90;;;;;;5094520;28;20044;-77
2022/12/31 04:39:36;;;;;;;3.70;0.50;;;11.30;99.90;;;;;;5078457;28;20136;-78
2022/12/31 04:42:04;;;;;;;1.27;0.40;;;11.40;99.90;;;;;;5096041;28;20456;-78
2022/12/31 04:44:33;;;;;;;3.40;0.40;;;11.40;99.90;;;;;;5077156;28;20055;-78
2022/12/31 04:47:01;;;;;;;3.63;0.50;;;11.50;99.90;;;;;;5095603;28;20048;-76
2022/12/31 04:49:28;;;;;;;4.75;0.70;;;11.60;99.90;;;;;;5095303;28;20044;-76
2022/12/31 04:51:56;;;;;;;4.37;0.77;;;11.60;99.90;;;;;;5094327;28;20499;-77
2022/12/31 04:54:23;;;;;;;7.88;0.90;;;11.70;99.90;;;;;;5078061;28;20281;-78
2022/12/31 04:56:51;;;;;;;9.73;1.20;;;11.70;99.90;;;;;;5094358;28;20054;-76
2022/12/31 04:59:18;;;;;;;17.88;1.83;;;11.80;99.90;;;;;;5095356;28;20067;-74
2022/12/31 05:01:46;;;;;;;21.27;2.25;;;11.90;99.90;;;;;;5095259;28;20384;-75
2022/12/31 05:04:14;;;;;;;17.98;2.30;;;11.90;99.90;;;;;;5076239;28;20059;-76
2022/12/31 05:06:41;;;;;;;24.20;2.47;;;12.00;99.90;;;;;;5095503;28;20048;-77
2022/12/31 05:09:09;;;;;;;21.63;2.50;;;12.10;99.90;;;;;;5077358;28;20043;-76
2022/12/31 05:11:37;;;;;;;24.35;2.78;;;12.30;99.90;;;;;;5093865;28;20040;-75
2022/12/31 05:14:04;;;;;;;19.55;2.58;;;12.30;99.90;;;;;;5077617;28;20488;-79
2022/12/31 05:16:32;;;;;;;19.00;2.50;;;12.40;99.90;;;;;;5095107;28;20452;-77
2022/12/31 05:18:59;;;;;;;20.85;2.90;;;12.40;99.90;;;;;;5093805;28;20055;-77
2022/12/31 05:21:27;;;;;;;22.50;2.90;;;12.50;99.90;;;;;;5077636;28;20044;-78
2022/12/31 05:23:54;;;;;;;22.05;3.20;;;12.50;99.90;;;;;;5059318;28;20284;-74
2022/12/31 05:26:21;;;;;;;20.90;2.28;;;12.60;99.90;;;;;;5077364;28;20055;-76
2022/12/31 05:28:49;;;;;;;21.75;2.67;;;12.60;99.90;;;;;;5094957;28;20059;-75
2022/12/31 05:31:17;;;;;;;19.88;2.38;;;12.70;99.90;;;;;;5075977;28;20052;-77
2022/12/31 05:33:44;;;;;;;19.13;2.42;;;12.60;99.90;;;;;;5094995;28;20050;-77
2022/12/31 05:36:12;;;;;;;19.45;2.08;;;12.70;99.90;;;;;;5094728;28;20044;-76
2022/12/31 05:38:39;;;;;;;17.58;2.17;;;12.80;99.90;;;;;;5076074;28;20044;-76
2022/12/31 05:41:09;;;;;;;20.27;2.33;;;12.80;99.90;;;;;;5094794;28;20052;-76
2022/12/31 05:43:37;;;;;;;17.77;2.20;;;12.80;99.90;;;;;;5093666;28;20480;-77
2022/12/31 05:46:04;;;;;;;17.50;2.38;;;12.90;99.90;;;;;;5076919;28;20476;-76
2022/12/31 05:48:32;;;;;;;13.68;1.70;;;12.80;99.90;;;;;;5095125;28;20044;-75
2022/12/31 05:50:59;;;;;;;10.73;1.77;;;12.90;99.90;;;;;;5075769;28;20055;-77
2022/12/31 05:53:27;;;;;;;15.60;2.10;;;12.90;99.90;;;;;;5094794;28;20044;-78
2022/12/31 05:55:54;;;;;;;14.75;1.88;;;13.00;99.90;;;;;;5076704;28;20044;-74
2022/12/31 05:58:22;;;;;;;14.40;2.13;;;13.00;99.90;;;;;;5093639;28;20044;-76
2022/12/31 06:00:51;;;;;;;16.98;2.63;;;13.00;99.90;;;;;;5094449;28;20055;-77
2022/12/31 06:03:18;;;;;;;15.90;2.40;;;13.00;99.90;;;;;;5094812;28;20040;-76
2022/12/31 06:05:46;;;;;;;16.27;2.70;;;13.00;99.90;;;;;;5093388;28;20048;-77
2022/12/31 06:08:13;;;;;;;18.70;2.92;;;13.00;99.90;;;;;;5076890;28;20044;-76
2022/12/31 06:10:41;;;;;;;18.63;2.83;;;13.00;99.90;;;;;;5075718;28;20400;-77
2022/12/31 06:13:08;;;;;;;18.58;2.70;;;13.10;99.90;;;;;;5094368;28;20063;-75
2022/12/31 06:15:38;;;;;;;14.70;2.83;;;13.10;99.90;;;;;;5094691;28;20041;-78
2022/12/31 06:18:06;;;;;;;21.02;3.13;;;13.10;99.90;;;;;;5093241;28;20040;-74
2022/12/31 06:20:37;;;;;;;22.20;3.47;;;13.40;99.90;;;;;;5076736;28;20047;-77
2022/12/31 06:23:04;;;;;;;29.77;3.30;;;13.20;99.90;;;;;;5079252;28;20048;-75
2022/12/31 06:25:34;;;;;;;23.65;3.60;;;13.30;99.90;;;;;;5079217;28;20062;-77
2022/12/31 06:28:03;;;;;;;29.08;3.90;;;13.20;99.90;;;;;;5098313;28;20380;-76
2022/12/31 06:30:30;;;;;;;26.15;4.10;;;13.20;99.90;;;;;;5097239;28;20039;-77
2022/12/31 06:32:58;;;;;;;19.67;4.03;;;13.30;99.90;;;;;;5080667;28;20102;-78
2022/12/31 06:35:25;;;;;;;29.75;4.40;;;13.30;99.90;;;;;;5080279;28;20036;-76
2022/12/31 06:37:52;;;;;;;32.50;3.70;;;13.30;99.90;;;;;;5079362;28;20059;-76
2022/12/31 06:40:20;;;;;;;34.92;4.07;;;13.30;99.90;;;;;;5097883;28;20040;-75
2022/12/31 06:42:47;;;;;;;30.08;3.72;;;13.30;99.90;;;;;;5064119;28;20464;-76
2022/12/31 06:45:18;;;;;;;27.88;3.70;;;13.30;99.90;;;;;;5079798;28;20044;-78
2022/12/31 06:47:46;;;;;;;25.60;3.03;;;13.30;99.90;;;;;;5080111;28;20047;-74
2022/12/31 06:50:15;;;;;;;21.25;3.47;;;13.20;99.90;;;;;;5078946;28;20059;-77
2022/12/31 06:52:43;;;;;;;31.13;4.03;;;13.20;99.90;;;;;;5097653;28;20059;-78
2022/12/31 06:55:11;;;;;;;26.98;3.92;;;13.20;99.90;;;;;;5097602;28;20040;-77
2022/12/31 06:57:39;;;;;;;25.25;3.42;;;13.30;99.90;;;;;;5078801;28;20036;-76
2022/12/31 07:00:07;;;;;;;28.48;4.00;;;13.20;99.90;;;;;;5063483;28;20495;-76
2022/12/31 07:03:20;;;;;;;27.25;3.78;;;13.30;99.90;;;;;;5097680;28;20047;-75
2022/12/31 07:06:19;;;;;;;24.15;3.33;;;13.20;99.90;;;;;;5052043;28;20047;-76
2022/12/31 07:09:05;;;;;;;28.10;3.15;;;13.20;99.90;;;;;;5097464;28;20055;-76
2022/12/31 07:12:02;;;;;;;30.00;3.28;;;13.10;99.90;;;;;;5078481;28;20043;-76
2022/12/31 07:14:42;;;;;;;26.30;2.97;;;13.10;99.90;;;;;;5058856;28;20063;-77
2022/12/31 07:17:45;;;;;;;20.38;2.95;;;13.10;99.90;;;;;;5096010;28;20478;-76
2022/12/31 07:20:15;;;;;;;23.33;2.97;;;13.00;99.90;;;;;;5080114;28;20044;-77
2022/12/31 07:22:44;;;;;;;24.30;2.85;;;12.90;99.90;;;;;;5097272;28;20044;-76
2022/12/31 07:25:16;;;;;;;20.67;2.78;;;12.90;99.90;;;;;;5078710;28;20055;-76
2022/12/31 07:28:09;;;;;;;20.67;3.20;;;12.90;99.90;;;;;;5079352;28;20052;-76
2022/12/31 07:30:53;;;;;;;23.13;2.70;;;12.90;99.90;;;;;;5096051;28;20040;-76
2022/12/31 07:33:36;;;;;;;22.73;2.78;;;12.80;99.90;;;;;;5079572;28;20044;-78
2022/12/31 07:36:36;;;;;;;23.88;3.20;;;12.80;99.90;;;;;;5096939;28;20048;-77
2022/12/31 07:39:20;;;;;;;22.67;2.95;;;12.80;99.90;;;;;;5061448;28;20484;-76
2022/12/31 07:41:51;;;;;;;26.23;3.30;;;12.70;99.90;;;;;;5097036;28;20040;-77
2022/12/31 07:44:50;;;;;;;22.63;3.30;;;12.70;99.90;;;;;;5077837;28;20507;-75
2022/12/31 07:47:23;;;;;;;38.75;3.65;;;12.70;99.90;;;;;;5079104;28;20051;-77
2022/12/31 07:49:52;;;;;;;35.83;4.22;;;12.70;99.90;;;;;;5079081;28;20480;-76
2022/12/31 07:52:20;;;;;;;28.00;3.53;;;12.70;99.90;;;;;;5095573;28;20044;-77
2022/12/31 07:54:48;;;;;;;32.67;3.85;;;12.70;99.90;;;;;;5096531;28;20043;-76
2022/12/31 07:57:18;;;;;;;33.72;4.07;;;12.70;99.90;;;;;;5095697;28;20044;-74
2022/12/31 07:59:57;;;;;;;32.78;4.55;;;12.70;99.90;;;;;;5096456;28;20048;-75
2022/12/31 08:02:33;;;;;;;32.53;3.88;;;12.80;99.90;;;;;;5078804;28;20044;-78
2022/12/31 08:05:22;;;;;;;30.40;3.20;;;12.70;99.90;;;;;;5077315;28;20052;-79
2022/12/31 08:08:17;;;;;;;29.50;3.55;;;12.80;99.90;;;;;;5062346;28;20119;-77
2022/12/31 08:10:58;;;;;;;28.70;3.50;;;12.80;99.90;;;;;;5094960;28;20048;-74
2022/12/31 08:13:26;;;;;;;22.45;2.75;;;12.70;99.90;;;;;;5096331;28;20056;-75
2022/12/31 08:15:54;;;;;;;;;;;12.80;99.90;;;;;;5096342;28;20052;-73
2022/12/31 08:18:21;;;;;;;26.77;3.67;;;12.80;99.90;;;;;;5077275;28;19931;-75
2022/12/31 08:21:03;;;;;;;32.63;4.20;;;12.80;99.90;;;;;;5061868;28;20044;-74
2022/12/31 08:23:51;;;;;;;31.27;4.10;;;12.80;99.90;;;;;;5094774;28;20035;-77
2022/12/31 08:26:35;;;;;;;33.65;3.65;;;12.80;99.90;;;;;;5096069;28;20036;-78
2022/12/31 08:29:22;;;;;;;31.13;4.13;;;12.80;99.90;;;;;;5078617;28;20055;-75
2022/12/31 08:31:50;;;;;;;31.48;4.38;;;12.80;99.90;;;;;;5094713;28;20059;-79
2022/12/31 08:34:37;;;;;;;37.97;4.53;;;12.80;99.90;;;;;;5077884;28;20047;-77
2022/12/31 08:37:15;;;;;;;37.33;4.47;;;12.90;99.90;;;;;;5094442;28;20044;-79
2022/12/31 08:40:09;;;;;;;37.00;4.35;;;12.90;99.90;;;;;;5095381;28;20070;-78
2022/12/31 08:43:18;;;;;;;32.33;4.10;;;12.90;99.90;;;;;;5061119;28;20055;-76
2022/12/31 08:45:48;;;;;;;42.72;5.07;;;12.90;99.90;;;;;;5071769;28;20043;-78
2022/12/31 08:48:16;;;;;;;30.83;4.05;;;12.90;99.90;;;;;;5115878;28;20043;-76
2022/12/31 08:50:43;;;;;;;30.77;3.97;;;13.00;99.90;;;;;;5114749;28;20047;-76
2022/12/31 08:53:11;;;;;;;32.00;4.10;;;13.00;99.90;;;;;;5081239;28;20052;-78
2022/12/31 08:55:41;;;;;;;33.05;3.97;;;13.00;99.90;;;;;;5098002;28;20059;-77
2022/12/31 08:58:38;;;;;;;28.42;3.70;;;13.00;99.90;;;;;;5097120;28;20036;-77
2022/12/31 09:01:07;;;;;;;35.72;4.38;;;13.00;99.90;;;;;;5081254;28;20055;-77
2022/12/31 09:03:50;;;;;;;34.13;4.35;;;13.00;99.90;;;;;;5080248;28;20168;-79
2022/12/31 09:06:21;;;;;;;42.55;4.55;;;13.00;99.90;;;;;;5115690;28;20058;-78
2022/12/31 09:09:09;;;;;;;30.25;4.63;;;13.00;99.90;;;;;;5115278;28;20364;-78
2022/12/31 09:11:58;;;;;;;34.05;4.40;;;13.00;99.90;;;;;;5114407;28;20044;-76
2022/12/31 09:14:28;;;;;;;44.95;4.45;;;13.00;99.90;;;;;;5097320;28;20364;-75
2022/12/31 09:17:07;;;;;;;34.10;4.38;;;13.20;99.90;;;;;;5096127;28;20471;-79
2022/12/31 09:19:35;;;;;;;40.85;5.22;;;13.00;99.90;;;;;;5097272;28;20458;-79
2022/12/31 09:22:02;;;;;;;36.92;4.53;;;13.00;99.90;;;;;;5097583;28;20042;-79
2022/12/31 09:24:30;;;;;;;39.88;4.78;;;13.10;99.90;;;;;;5095876;28;20372;-78
2022/12/31 09:27:32;;;;;;;38.85;5.07;;;13.10;99.90;;;;;;5097356;28;20062;-79
2022/12/31 09:30:10;;;;;;;37.85;4.45;;;13.00;99.90;;;;;;5096923;28;20062;-80
2022/12/31 09:32:53;;;;;;;;;;;13.10;99.90;;;;;;5097411;28;20062;-76
2022/12/31 09:35:45;;;;;;;34.72;4.50;;;13.10;99.90;;;;;;5097018;28;19920;-79
2022/12/31 09:38:53;;;;;;;40.20;4.60;;;13.10;99.90;;;;;;5113388;28;20045;-77
2022/12/31 09:41:59;;;;;;;31.98;4.47;;;13.10;99.90;;;;;;5102256;28;20070;-78
2022/12/31 09:45:04;;;;;;;37.53;5.03;;;13.10;99.90;;;;;;5078982;28;20043;-77
2022/12/31 09:47:52;;;;;;;30.42;4.18;;;13.10;99.90;;;;;;5114352;28;20589;-78
2022/12/31 09:50:26;;;;;;;31.55;5.00;;;13.10;99.90;;;;;;5113771;28;20050;-78
2022/12/31 09:53:15;;;;;;;29.75;4.28;;;13.10;99.90;;;;;;5097188;28;20048;-79
2022/12/31 09:55:55;;;;;;;37.38;4.45;;;13.10;99.90;;;;;;5114851;28;20044;-80
2022/12/31 09:58:35;;;;;;;30.92;4.30;;;13.10;99.90;;;;;;5117535;28;20050;-78
2022/12/31 10:01:26;;;;;;;34.33;4.30;;;13.10;99.90;;;;;;5101544;28;20044;-80
2022/12/31 10:04:16;;;;;;;29.38;3.60;;;13.10;99.90;;;;;;5100235;28;20058;-76
2022/12/31 10:06:52;;;;;;;23.42;3.47;;;13.10;99.90;;;;;;5101280;28;20040;-79
2022/12/31 10:09:59;;;;;;;27.10;3.10;;;13.10;99.90;;;;;;5119145;28;20044;-80
2022/12/31 10:12:53;;;;;;;19.37;2.90;;;13.10;99.90;;;;;;5114492;28;20044;-77
2022/12/31 10:15:37;;;;;;;26.23;3.22;;;13.10;99.90;;;;;;5119085;28;20287;-82
2022/12/31 10:18:46;;;;;;;17.60;2.47;;;13.10;99.90;;;;;;5117940;28;20043;-81
2022/12/31 10:21:56;;;;;;;15.85;2.13;;;13.10;99.90;;;;;;5119037;28;20071;-80
2022/12/31 10:24:59;;;;;;;14.38;2.08;;;13.10;99.90;;;;;;4999198;28;20050;-82
2022/12/31 10:27:46;;;;;;;18.45;2.20;;;13.20;99.90;;;;;;5063952;28;20468;-84
2022/12/31 10:30:16;;;;;;;12.38;1.70;;;13.30;99.90;;;;;;5100014;28;20063;-81
2022/12/31 10:32:53;;;;;;;12.90;1.92;;;13.20;99.90;;;;;;5118684;28;20475;-80
2022/12/31 10:35:48;;;;;;;12.82;1.80;;;13.30;99.90;;;;;;5118374;28;20054;-81
2022/12/31 10:38:29;;;;;;;18.33;2.08;;;13.20;99.90;;;;;;5117615;28;20044;-82
2022/12/31 10:41:27;;;;;;;13.15;1.63;;;13.30;99.90;;;;;;5118475;28;20051;-75
2022/12/31 10:44:13;;;;;;;10.38;1.30;;;13.30;99.90;;;;;;5117860;28;20490;-79
2022/12/31 10:47:05;;;;;;;7.55;1.25;;;13.30;99.90;;;;;;5101049;28;20047;-78
2022/12/31 10:49:57;;;;;;;7.57;1.40;;;13.20;99.90;;;;;;5100874;28;20039;-80
2022/12/31 10:53:09;;;;;;;11.48;1.45;;;13.20;99.90;;;;;;5116381;28;20349;-80
2022/12/31 10:55:40;;;;;;;6.40;1.17;;;13.20;99.90;;;;;;5079866;28;20051;-78
2022/12/31 10:58:25;;;;;;;6.85;1.05;;;13.20;99.90;;;;;;5116677;28;20051;-80
2022/12/31 11:01:15;;;;;;;7.97;1.08;;;13.20;99.90;;;;;;5118501;28;20047;-80
2022/12/31 11:04:07;;;;;;;12.60;1.38;;;13.20;99.90;;;;;;5117094;28;20048;-81
2022/12/31 11:06:59;;;;;;;8.57;1.15;;;13.20;99.90;;;;;;5098837;28;20048;-79
2022/12/31 11:09:29;;;;;;;6.10;0.80;;;13.20;99.90;;;;;;5116411;28;20051;-77
2022/12/31 11:12:29;;;;;;;4.20;0.80;;;13.20;99.90;;;;;;5115325;28;20062;-81
2022/12/31 11:15:19;;;;;;;5.55;0.80;;;13.20;99.90;;;;;;5115745;28;20472;-78
2022/12/31 11:18:25;;;;;;;4.32;0.80;;;13.10;99.90;;;;;;5115612;28;20349;-78
2022/12/31 11:21:17;;;;;;;4.03;0.80;;;13.10;99.90;;;;;;5048654;28;20062;-79
2022/12/31 11:24:24;;;;;;;4.07;0.68;;;13.10;99.90;;;;;;5115687;28;20369;-76
2022/12/31 11:27:14;;;;;;;3.60;0.77;;;13.00;99.90;;;;;;5116088;28;20039;-76
2022/12/31 11:30:00;;;;;;;2.88;0.55;;;13.00;99.90;;;;;;5081080;28;20062;-77
2022/12/31 11:32:52;;;;;;;2.25;0.63;;;13.00;99.90;;;;;;5115187;28;20047;-75
2022/12/31 11:35:40;;;;;;;2.47;0.60;;;13.00;99.90;;;;;;5116030;28;20061;-78
2022/12/31 11:38:17;;;;;;;3.13;0.50;;;12.90;99.90;;;;;;5096779;28;20044;-77
2022/12/31 11:41:02;;;;;;;1.75;0.38;;;12.90;99.90;;;;;;5081157;28;20051;-78
2022/12/31 11:43:30;;;;;;;3.35;0.40;;;12.90;99.90;;;;;;5080516;28;20058;-78
2022/12/31 11:46:19;;;;;;;2.00;0.30;;;12.80;99.90;;;;;;5115662;28;20048;-76
2022/12/31 11:49:08;;;;;;;3.17;0.45;;;12.80;99.90;;;;;;5115631;28;20052;-77
2022/12/31 11:51:58;;;;;;;3.00;0.30;;;12.80;99.90;;;;;;5114507;28;20051;-78
2022/12/31 11:54:48;;;;;;;2.05;0.28;;;12.70;99.90;;;;;;5057835;28;20051;-76
2022/12/31 11:57:36;;;;;;;1.65;0.60;;;12.70;99.90;;;;;;5114199;28;20054;-76
2022/12/31 12:00:23;;;;;;;5.63;1.10;;;12.70;99.90;;;;;;5080989;28;20058;-78
2022/12/31 12:02:57;;;;;;;10.35;1.13;;;12.70;99.90;;;;;;5097523;28;20047;-76
2022/12/31 12:05:25;;;;;;;14.50;1.83;;;12.70;99.90;;;;;;5076006;28;1101656;-77
2022/12/31 12:07:53;;;;;;;13.65;1.52;;;12.70;99.90;;;;;;5098688;28;20049;-78
2022/12/31 12:10:24;;;;;;;;;;;12.70;99.90;;;;;;5097711;28;20043;-76
2022/12/31 12:12:59;;;;;;;24.77;3.30;;;12.80;99.90;;;;;;5116627;28;20275;-75
2022/12/31 12:15:33;;;;;;;29.27;3.47;;;12.80;99.90;;;;;;5098545;28;20043;-76
2022/12/31 12:18:08;;;;;;;26.38;4.13;;;12.90;99.90;;;;;;5097454;28;20375;-77
2022/12/31 12:20:37;;;;;;;31.10;4.40;;;12.90;99.90;;;;;;5097640;28;20039;-74
2022/12/31 12:23:20;;;;;;;30.30;4.35;;;13.00;99.90;;;;;;5098378;28;20035;-72
2022/12/31 12:25:48;;;;;;;33.25;4.55;;;13.00;99.90;;;;;;5114858;28;20043;-76
2022/12/31 12:28:29;;;;;;;27.02;4.38;;;13.00;99.90;;;;;;5098101;28;20361;-74
2022/12/31 12:31:00;;;;;;;23.48;3.72;;;13.10;99.90;;;;;;5114986;28;20048;-76
2022/12/31 12:33:39;;;;;;;24.65;3.70;;;13.10;99.90;;;;;;5115877;28;20055;-74
2022/12/31 12:36:13;;;;;;;23.20;3.65;;;13.10;99.90;;;;;;5097989;28;20054;-74
2022/12/31 12:38:41;;;;;;;24.27;3.63;;;13.10;99.90;;;;;;5114658;28;20047;-74
2022/12/31 12:41:17;;;;;;;18.77;2.65;;;13.20;99.90;;;;;;5115438;28;20474;-76
2022/12/31 12:43:45;;;;;;;25.50;4.35;;;13.10;99.90;;;;;;5080056;28;20484;-75
2022/12/31 12:46:29;;;;;;;27.88;3.90;;;13.10;99.90;;;;;;5097723;28;20047;-75
2022/12/31 12:48:58;;;;;;;26.83;4.28;;;13.10;99.90;;;;;;5115695;28;20039;-74
2022/12/31 12:52:01;;;;;;;33.97;4.70;;;13.10;99.90;;;;;;5114502;28;20051;-75
2022/12/31 12:54:56;;;;;;;25.38;4.03;;;13.00;99.90;;;;;;5115633;28;20062;-77
2022/12/31 12:57:38;;;;;;;27.92;4.00;;;13.00;99.90;;;;;;5096720;28;20044;-73
2022/12/31 13:00:20;;;;;;;26.58;3.33;;;12.90;99.90;;;;;;5115324;28;20400;-73
2022/12/31 13:03:11;;;;;;;26.50;4.28;;;12.90;99.90;;;;;;5115481;28;20051;-74
2022/12/31 13:05:57;;;;;;;26.63;4.18;;;12.90;99.90;;;;;;5114058;28;20058;-75
2022/12/31 13:08:47;;;;;;;23.00;3.80;;;12.90;99.90;;;;;;5097533;28;20043;-76
2022/12/31 13:11:37;;;;;;;23.33;3.67;;;12.90;99.90;;;;;;5095864;28;20059;-74
2022/12/31 13:14:22;;;;;;;28.88;4.32;;;12.90;99.90;;;;;;5115142;28;20384;-77
2022/12/31 13:16:52;;;;;;;33.38;4.55;;;12.90;99.90;;;;;;5113972;28;20062;-76
2022/12/31 13:19:41;;;;;;;34.47;5.00;;;12.90;99.90;;;;;;5115025;28;20043;-75
2022/12/31 13:22:36;;;;;;;35.42;4.90;;;12.80;99.90;;;;;;5114946;28;20050;-74
2022/12/31 13:25:22;;;;;;;25.40;4.50;;;12.80;99.90;;;;;;5113732;28;20047;-77
2022/12/31 13:27:52;;;;;;;35.85;5.20;;;12.80;99.90;;;;;;5102614;28;20044;-76
2022/12/31 13:30:22;;;;;;;36.33;5.32;;;12.80;99.90;;;;;;5093305;28;20055;-78
2022/12/31 13:33:14;;;;;;;41.47;4.63;;;12.90;99.90;;;;;;5076905;28;20051;-76
2022/12/31 13:35:47;;;;;;;33.38;4.68;;;12.70;99.90;;;;;;5076811;28;20036;-78